Weather at Keflavik International Airport

Public forecast

Using degrees Celsius for public forecast. Weather courtesy of forecast.io.

Current aviation weather report (METAR) for Keflavik International Airport

2024/02/23 06:00 (retrieved 11 minutes ago)

BIKF 230600Z 04012KT 9999 NSC 01/M03 Q0975

Aviation forecast (TAF) for Keflavik International Airport

2024/02/23 06:07 (retrieved 4 minutes ago)

TAF BIKF 230405Z 2306/2406 02012KT CAVOK TX03/2316Z TNM01/2306Z PROB40 TEMPO 2307/2312 02020G30KT